createdAt,value
2023-05-22T05:43:28.726Z,99953.81
2023-05-22T05:46:14.361Z,99953.81
2023-05-22T05:48:59.732Z,99967.56
2023-05-22T05:51:45.484Z,99963.97
2023-05-22T05:54:31.193Z,99960.38
2023-05-22T05:57:16.678Z,99961.72
2023-05-22T06:00:02.533Z,99964.66
2023-05-22T06:02:50.655Z,99960.72
2023-05-22T06:05:36.280Z,99968.81
2023-05-22T06:08:21.961Z,99961.13
2023-05-22T06:11:07.053Z,99966.56
2023-05-22T06:13:52.427Z,99970.22
2023-05-22T06:16:37.882Z,99962.91
2023-05-22T06:19:23.138Z,99970.19
2023-05-22T06:22:09.003Z,99979.25
2023-05-22T06:24:54.592Z,99979.53
2023-05-22T06:27:40.115Z,99972.28
2023-05-22T06:30:43.372Z,99969.31
2023-05-22T06:33:29.016Z,99977.44
2023-05-22T06:36:14.681Z,99970.37
2023-05-22T06:39:00.217Z,99977.47
2023-05-22T06:41:45.535Z,99984.53
2023-05-22T06:44:30.987Z,99976.97
2023-05-22T06:47:16.205Z,99979.72
2023-05-22T06:50:01.584Z,99978.53
2023-05-22T06:52:46.841Z,99976.06
2023-05-22T06:55:35.182Z,99979.75
2023-05-22T06:58:20.830Z,99979.19
2023-05-22T07:01:06.370Z,99983.41
2023-05-22T07:03:51.775Z,99981.62
2023-05-22T07:06:41.727Z,99978.53
2023-05-22T07:09:27.564Z,99979.63
2023-05-22T07:12:13.549Z,99985.81
2023-05-22T07:15:00.295Z,99984.59
2023-05-22T07:17:46.660Z,99986.69
2023-05-22T07:20:32.135Z,99985.09
2023-05-22T07:23:17.749Z,99984.06
2023-05-22T07:26:03.185Z,99988.19
2023-05-22T07:28:48.735Z,99984.28
2023-05-22T07:31:34.546Z,99991.28
2023-05-22T07:34:19.851Z,99988.81
2023-05-22T07:37:08.022Z,99987.97
2023-05-22T07:39:53.714Z,99996.88
2023-05-22T07:42:38.997Z,99990.25
2023-05-22T07:45:24.169Z,99990.84
2023-05-22T07:48:09.472Z,99990.44
2023-05-22T07:50:54.907Z,99978.84
2023-05-22T07:53:40.656Z,99986.28
2023-05-22T07:56:27.474Z,99989.97
2023-05-22T07:59:13.085Z,100001.12
2023-05-22T08:01:58.651Z,99992.63
2023-05-22T08:04:44.863Z,99989.44
2023-05-22T08:07:31.878Z,99983.22
2023-05-22T08:10:19.147Z,99995.63
2023-05-22T08:13:06.472Z,99999.53
2023-05-22T08:15:51.839Z,99980.63
2023-05-22T08:18:46.271Z,99986.34
2023-05-22T08:21:34.608Z,99993.13
2023-05-22T08:24:20.093Z,99994.47
2023-05-22T08:27:05.806Z,99989.97
2023-05-22T08:29:52.250Z,99980.72
2023-05-22T08:32:37.901Z,99989.28
2023-05-22T08:35:23.732Z,99979.06
2023-05-22T08:38:08.819Z,99974.88
2023-05-22T08:40:57.842Z,99975.78
2023-05-22T08:43:43.266Z,99986.44
2023-05-22T08:46:30.202Z,99981.00
2023-05-22T08:49:16.439Z,99978.22
2023-05-22T08:52:23.244Z,99981.78
2023-05-22T08:55:09.249Z,99981.00
2023-05-22T08:57:56.673Z,99978.81
2023-05-22T09:00:42.284Z,99982.72
2023-05-22T09:03:33.052Z,99969.94
2023-05-22T09:06:18.679Z,99980.09
2023-05-22T09:09:04.503Z,99974.81
2023-05-22T09:11:50.388Z,99973.75
2023-05-22T09:14:45.616Z,99968.34
2023-05-22T09:17:31.748Z,99973.31
2023-05-22T09:20:18.620Z,99964.19
2023-05-22T09:23:14.702Z,99970.94
2023-05-22T09:26:03.035Z,99968.53
2023-05-22T09:28:48.252Z,99968.25
2023-05-22T09:31:41.533Z,99974.94
2023-05-22T09:34:30.359Z,99970.44
2023-05-22T09:37:16.463Z,99961.53
2023-05-22T09:40:09.851Z,99970.53
2023-05-22T09:42:55.414Z,99965.22
2023-05-22T09:45:41.257Z,99953.41
2023-05-22T09:48:26.748Z,99958.28
2023-05-22T09:51:13.083Z,99957.38
2023-05-22T09:54:03.713Z,99950.25
2023-05-22T09:56:52.800Z,99950.38
2023-05-22T09:59:40.457Z,99956.25
2023-05-22T10:02:27.800Z,99926.47
2023-05-22T10:05:21.850Z,99952.50
2023-05-22T10:08:29.355Z,99944.47
2023-05-22T10:11:15.073Z,99940.56
2023-05-22T10:14:01.960Z,99935.59
2023-05-22T10:16:47.855Z,99943.56
2023-05-22T10:19:33.576Z,99942.53
2023-05-22T10:22:21.506Z,99927.66
2023-05-22T10:25:09.870Z,99935.53
2023-05-22T10:27:57.358Z,99935.38
2023-05-22T10:31:05.360Z,99930.91
2023-05-22T10:33:57.872Z,99929.84
2023-05-22T10:37:16.615Z,99934.41
2023-05-22T10:40:09.612Z,99926.28
2023-05-22T10:43:05.088Z,99912.94
2023-05-22T10:46:02.637Z,99919.03
2023-05-22T10:48:50.089Z,99918.41
2023-05-22T10:51:44.923Z,99918.06
2023-05-22T10:54:43.703Z,99911.09
2023-05-22T10:57:35.860Z,99913.06
2023-05-22T11:00:24.595Z,99905.53
2023-05-22T11:03:18.376Z,99891.78
2023-05-22T11:06:04.161Z,99906.12
2023-05-22T11:08:57.822Z,99900.09
2023-05-22T11:12:13.440Z,99897.59
2023-05-22T11:15:15.758Z,99889.59
2023-05-22T11:18:03.461Z,99894.50
2023-05-22T11:20:49.160Z,99886.09
2023-05-22T11:23:35.536Z,99882.97
2023-05-22T11:26:25.596Z,99876.09
2023-05-22T11:29:14.031Z,99876.53
2023-05-22T11:31:59.732Z,99879.44
2023-05-22T11:34:47.734Z,99874.66
2023-05-22T11:37:33.337Z,99877.41
2023-05-22T11:40:25.607Z,99869.75
2023-05-22T11:43:12.264Z,99865.75
2023-05-22T11:46:01.936Z,99867.50
2023-05-22T11:48:47.812Z,99857.84
2023-05-22T11:51:33.470Z,99860.34
2023-05-22T11:54:19.971Z,99857.53
2023-05-22T11:57:08.011Z,99860.00
2023-05-22T11:59:53.854Z,99849.84
2023-05-22T12:02:45.312Z,99852.91
2023-05-22T12:05:32.730Z,99843.09
2023-05-22T12:08:18.150Z,99849.28
2023-05-22T12:11:06.266Z,99845.41
2023-05-22T12:14:00.530Z,99841.81
2023-05-22T12:16:52.574Z,99853.12
2023-05-22T12:19:40.045Z,99833.22
2023-05-22T12:22:29.881Z,99835.25
2023-05-22T12:25:20.403Z,99835.34
2023-05-22T12:28:07.636Z,99813.78
2023-05-22T12:30:56.002Z,99819.41
2023-05-22T12:33:41.910Z,99821.28
2023-05-22T12:36:41.871Z,99814.34
2023-05-22T12:39:28.819Z,99819.06
2023-05-22T12:42:15.487Z,99812.19
2023-05-22T12:45:00.954Z,99808.06
2023-05-22T12:47:46.858Z,99799.84
2023-05-22T12:50:32.653Z,99795.41
2023-05-22T12:53:18.262Z,99795.28
2023-05-22T12:56:04.362Z,99790.72
2023-05-22T12:58:50.039Z,99785.06
2023-05-22T13:01:35.787Z,99803.31
2023-05-22T13:04:22.151Z,99790.97
2023-05-22T13:07:09.163Z,99795.84
2023-05-22T13:09:54.679Z,99781.00
2023-05-22T13:12:40.600Z,99780.03
2023-05-22T13:15:29.382Z,99777.09
2023-05-22T13:18:15.502Z,99778.13
2023-05-22T13:21:00.763Z,99787.56
2023-05-22T13:23:46.328Z,99774.69
2023-05-22T13:26:31.642Z,99766.28
